Terminal Aerodrome Forecast
Issued by NWS San Angelo, TX

Home | Current Version | Previous Version | Text Only | Print | Product List | Glossary On
Versions: 1 2 3 4 5 6 7 8 9 10 11 12 13 14 15 16 17 18 19 20 21 22 23 24 25 26 27 28
467
FTUS44 KSJT 221400 AAA
TAFABI
TAF AMD
KABI 221411Z 2214/2312 15008KT 6SM -DZ BR OVC004
     FM221600 14011KT 6SM BR VCSH OVC007
     FM222100 15012KT P6SM OVC015
     FM230100 15012KT P6SM OVC007=

USA.gov is the U.S. government's official web portal to all federal, state and local government web resources and services.